Disney Wonder — C6QM8 — position and weather

sailwx.info

Track history (hours):
 
Tides and Currents Weather Stations Pressure Air Temp Water Temp Dewpoint Dewpoint Depression Visibility Wind Speed Wind Dir Waves Ship Positions

Disney Wonder

Last reported at 2018-Sep-24 17:50 UTC. Time now 2018-Sep-24 21:47 UTC.
Position N 26°56' W 114°38'.

Length 301 m; draft 8.2 m.

Type: Passenger vessel. MMSI: 308457000.

Date/timePositionNaut miles runAvg speedWind from/ knotsBaromVisibWave heightAir tempDewpointWater temp
2018-Sep-24 17:50N 26°56' W 114°38'721.0
2018-Sep-24 17:30N 27°02' W 114°42'26221.4
2018-Sep-24 05:17N 30°57' W 116°54'521.4
2018-Sep-24 05:03N 31°02' W 116°55'722.0
2018-Sep-24 04:43N 31°09' W 116°57'1122.0
2018-Sep-24 04:14N 31°19' W 117°00'421.9
2018-Sep-24 04:03N 31°23' W 117°01'121.6
2018-Sep-24 04:00N 31°24' W 117°02'1021.6
2018-Sep-24 03:30N 31°34' W 117°05'1021.3
2018-Sep-24 03:03N 31°44' W 117°08'121.4
2018-Sep-24 03:00N 31°45' W 117°08'1121.2
2018-Sep-24 02:30N 31°54' W 117°13'1021.8
2018-Sep-24 02:03N 32°04' W 117°16'121.9
2018-Sep-24 02:00N 32°05' W 117°17'1221.7
2018-Sep-24 01:26N 32°17' W 117°21'820.9
2018-Sep-24 01:03N 32°25' W 117°21'122.0
2018-Sep-24 01:00N 32°26' W 117°21'1121.8
2018-Sep-24 00:30N 32°35' W 117°15'714.5
2018-Sep-24 00:03N 32°42' W 117°14'010.8
2018-Sep-24 00:00N 32°42' W 117°14'3 5.4
2018-Sep-23 23:29N 32°43' W 117°10'0 0.0
2018-Sep-23 22:53N 32°43' W 117°10'0 0.0
2018-Sep-23 22:17N 32°43' W 117°10'0 0.0
2018-Sep-23 21:53N 32°43' W 117°10'0 0.0
2018-Sep-23 21:05N 32°43' W 117°10'0 0.0
2018-Sep-23 20:59N 32°43' W 117°10'0 0.0
2018-Sep-23 20:29N 32°43' W 117°10'0 0.0
2018-Sep-23 19:59N 32°43' W 117°10'0 0.0
2018-Sep-23 18:59N 32°43' W 117°10'0 0.0
2018-Sep-23 18:29N 32°43' W 117°10'0 0.0
2018-Sep-23 17:59N 32°43' W 117°10'0 0.0
2018-Sep-23 17:11N 32°43' W 117°10'0 0.0
2018-Sep-23 16:47N 32°43' W 117°10'0 0.2
2018-Sep-23 16:29N 32°43' W 117°10'0 0.1
2018-Sep-23 15:59N 32°43' W 117°10'0 0.0
2018-Sep-23 15:05N 32°43' W 117°10'0 0.0
2018-Sep-23 14:53N 32°43' W 117°10'0 0.0
2018-Sep-23 14:29N 32°43' W 117°10'1 0.9
2018-Sep-23 13:30N 32°43' W 117°11'4 8.7
2018-Sep-23 13:03N 32°40' W 117°14'111.9
2018-Sep-23 13:00N 32°39' W 117°14'510.6
2018-Sep-23 12:30N 32°34' W 117°16'714.5
2018-Sep-23 12:04N 32°29' W 117°20'115.2
2018-Sep-23 12:00N 32°28' W 117°21'816.8
2018-Sep-23 11:30N 32°20' W 117°20'817.3
2018-Sep-23 11:03N 32°12' W 117°19'116.9
2018-Sep-23 11:01N 32°11' W 117°19'917.1
2018-Sep-23 10:30N 32°02' W 117°18'715.9
2018-Sep-23 10:03N 31°56' W 117°16'116.6
2018-Sep-23 10:01N 31°55' W 117°15'917.5
2018-Sep-23 09:30N 31°49' W 117°08'817.5
2018-Sep-23 09:03N 31°41' W 117°07'117.6
2018-Sep-23 09:00N 31°40' W 117°06'917.6
2018-Sep-23 08:30N 31°32' W 117°04'817.2
2018-Sep-23 08:03N 31°24' W 117°02'116.8
2018-Sep-23 08:00N 31°23' W 117°01'816.7
2018-Sep-23 07:30N 31°15' W 116°59'716.7
2018-Sep-23 07:03N 31°08' W 116°56'116.5
2018-Sep-23 07:00N 31°07' W 116°56'917.0
2018-Sep-23 06:30N 30°59' W 116°54'817.1
2018-Sep-23 06:02N 30°51' W 116°51'117.2
2018-Sep-23 06:00N 30°50' W 116°51'917.1
2018-Sep-23 05:27N 30°41' W 116°48'819.2
2018-Sep-23 05:02N 30°34' W 116°46'120.7
2018-Sep-23 05:00N 30°33' W 116°46'1020.3
2018-Sep-23 04:30N 30°23' W 116°42'920.3
2018-Sep-23 04:03N 30°15' W 116°38'120.2
2018-Sep-23 04:00N 30°14' W 116°37'1020.2
2018-Sep-23 03:30N 30°05' W 116°33'919.9
2018-Sep-23 03:02N 29°56' W 116°29'2920.1
2018-Sep-23 01:37N 29°30' W 116°16'719.8
2018-Sep-23 01:15N 29°23' W 116°13'419.4
2018-Sep-23 01:03N 29°20' W 116°11'219.5
2018-Sep-23 00:57N 29°18' W 116°10'919.8
2018-Sep-23 00:30N 29°10' W 116°06'1020.1
2018-Sep-23 00:02N 29°01' W 116°02'019.7
2018-Sep-23 00:00N 29°00' W 116°02'1320.1
2018-Sep-22 23:21N 28°48' W 115°56'619.9
2018-Sep-22 23:03N 28°43' W 115°53'119.7
2018-Sep-22 23:00N 28°42' W 115°53'1020.1
2018-Sep-22 22:30N 28°33' W 115°48'1820.2
2018-Sep-22 21:35N 28°15' W 115°41'221.0
2018-Sep-22 21:28N 28°13' W 115°39'2020.4
2018-Sep-22 20:29N 27°57' W 115°26'1020.4
2018-Sep-22 20:00N 27°49' W 115°20'1020.5
2018-Sep-22 19:29N 27°40' W 115°13'1020.9
2018-Sep-22 19:01N 27°32' W 115°07'120.5
2018-Sep-22 18:58N 27°31' W 115°07'176 4.1
2018-Sep-21 00:00N 25°12' W 113°06'39721.6 270 / 101011.010.8 22.018.922.0
2018-Sep-20 05:36N 30°55' W 116°52'221.7
2018-Sep-20 05:30N 30°57' W 116°53'2021.4
2018-Sep-20 04:35N 31°16' W 116°58'221.8
2018-Sep-20 04:30N 31°17' W 116°59'1021.5
2018-Sep-20 04:03N 31°27' W 117°02'121.4
2018-Sep-20 04:00N 31°28' W 117°02'1121.1
2018-Sep-20 03:29N 31°38' W 117°06'921.3
2018-Sep-20 03:03N 31°46' W 117°11'121.8
2018-Sep-20 03:00N 31°47' W 117°11'1121.7
2018-Sep-20 02:30N 31°57' W 117°17'1021.2
2018-Sep-20 02:03N 32°06' W 117°21'122.1
2018-Sep-20 02:00N 32°07' W 117°21'13809.0
2018-Sep-20 02:00N 31°54' W 117°18'2449.7 310 / 111007.010.8 18.014.620.0
2018-Sep-20 01:30N 32°18' W 117°21'920.6
2018-Sep-20 01:03N 32°27' W 117°23'119.8
2018-Sep-20 01:00N 32°28' W 117°22'1020.0
2018-Sep-20 00:30N 32°36' W 117°15'612.8
2018-Sep-20 00:03N 32°42' W 117°14'1 9.9
2018-Sep-20 00:00N 32°42' W 117°14'3 4.6
2018-Sep-19 23:22N 32°43' W 117°10'0 0.0
2018-Sep-19 22:52N 32°43' W 117°10'0 0.0
2018-Sep-19 22:28N 32°43' W 117°10'0 0.0
2018-Sep-19 21:58N 32°43' W 117°10'0 0.0
2018-Sep-19 21:22N 32°43' W 117°10'0 0.0
2018-Sep-19 20:58N 32°43' W 117°10'0 0.0
2018-Sep-19 20:28N 32°43' W 117°10'0 0.0
2018-Sep-19 19:52N 32°43' W 117°10'0 0.0
2018-Sep-19 19:28N 32°43' W 117°10'0 0.0
2018-Sep-19 18:52N 32°43' W 117°10'0 0.0
2018-Sep-19 18:22N 32°43' W 117°10'0 0.0
2018-Sep-19 17:58N 32°43' W 117°10'0 0.0
2018-Sep-19 17:28N 32°43' W 117°10'0 0.0
2018-Sep-19 16:58N 32°43' W 117°10'0 0.0
2018-Sep-19 16:28N 32°43' W 117°10'0 0.0
2018-Sep-19 15:58N 32°43' W 117°10'0 0.0
2018-Sep-19 15:04N 32°43' W 117°10'0 0.0
2018-Sep-19 14:58N 32°43' W 117°10'0 0.0
2018-Sep-19 14:25N 32°43' W 117°10'1 0.6
2018-Sep-19 13:30N 32°43' W 117°11'4 7.7
2018-Sep-19 13:03N 32°40' W 117°14'114.1
2018-Sep-19 13:00N 32°40' W 117°14'5 9.3
2018-Sep-19 12:30N 32°36' W 117°17'510.8
2018-Sep-19 12:03N 32°34' W 117°22'011.1
2018-Sep-19 12:01N 32°34' W 117°23'611.9
2018-Sep-19 11:30N 32°33' W 117°30'613.6
2018-Sep-19 11:04N 32°33' W 117°37'113.4
2018-Sep-19 11:00N 32°33' W 117°38'713.3
2018-Sep-19 10:28N 32°27' W 117°43'512.8
2018-Sep-19 10:03N 32°23' W 117°39'113.3
2018-Sep-19 10:01N 32°23' W 117°39'4 7.8
2018-Sep-19 09:30N 32°20' W 117°35'3 6.8
2018-Sep-19 09:03N 32°19' W 117°32'0 7.3
2018-Sep-19 09:00N 32°18' W 117°32'3 6.7
2018-Sep-19 08:29N 32°16' W 117°29'3 6.8
2018-Sep-19 08:04N 32°13' W 117°27'0 6.9
2018-Sep-19 08:00N 32°13' W 117°27'3 6.6
2018-Sep-19 07:30N 32°10' W 117°25'3 6.4
2018-Sep-19 07:03N 32°07' W 117°24'0 6.1
2018-Sep-19 07:01N 32°07' W 117°24'3 6.3
2018-Sep-19 06:31N 32°04' W 117°22'3 6.2
2018-Sep-19 06:04N 32°02' W 117°19'0 6.2
2018-Sep-19 06:01N 32°02' W 117°19'3 6.3
2018-Sep-19 05:30N 32°02' W 117°15'3 6.7
2018-Sep-19 05:03N 32°01' W 117°12'0 6.8
2018-Sep-19 05:00N 32°01' W 117°11'3 6.6
2018-Sep-19 04:29N 31°60' W 117°08'9 6.8
2018-Sep-19 03:12N 31°56' W 116°58'1 6.9
2018-Sep-19 03:01N 31°56' W 116°57'0 6.6
2018-Sep-19 03:00N 31°56' W 116°57'3 6.9
2018-Sep-19 02:30N 31°55' W 116°53'3 7.0
2018-Sep-19 02:03N 31°53' W 116°49'0 7.7
2018-Sep-19 02:00N 31°53' W 116°49'5382.2
2018-Sep-19 02:00N 31°48' W 116°48'4 7.9 320 / 111009.010.8 19.017.420.0
2018-Sep-19 01:30N 31°51' W 116°45'3 6.9
2018-Sep-19 01:03N 31°50' W 116°42'0 7.4
2018-Sep-19 00:59N 31°50' W 116°42'5 0.4
2018-Sep-18 13:40N 31°47' W 116°46'213.7
2018-Sep-18 13:31N 31°45' W 116°48'714.6
2018-Sep-18 13:03N 31°38' W 116°48'114.8
2018-Sep-18 13:00N 31°38' W 116°49'815.2
2018-Sep-18 12:30N 31°30' W 116°49'715.0
2018-Sep-18 12:03N 31°23' W 116°48'115.8
2018-Sep-18 12:00N 31°22' W 116°47'816.3
2018-Sep-18 11:30N 31°15' W 116°43'816.7
2018-Sep-18 11:03N 31°08' W 116°40'117.4
2018-Sep-18 11:00N 31°07' W 116°40'917.1
2018-Sep-18 10:30N 30°59' W 116°37'4717.2
2018-Sep-18 07:45N 30°14' W 116°22'4217.5
2018-Sep-18 05:20N 29°33' W 116°08'518.6
2018-Sep-18 05:03N 29°28' W 116°06'3417.4
2018-Sep-18 03:06N 28°56' W 115°55'215.8
2018-Sep-18 02:59N 28°54' W 115°54'815.8
2018-Sep-18 02:30N 28°46' W 115°52'715.9
2018-Sep-18 02:03N 28°40' W 115°50'116.4
2018-Sep-18 01:59N 28°39' W 115°49'816.1
2018-Sep-18 01:29N 28°31' W 115°47'716.3
2018-Sep-18 01:02N 28°24' W 115°44'253.4
2018-Sep-18 01:00N 28°24' W 115°42'237.5 320 / 181008.010.8 21.017.823.0
2018-Sep-18 00:56N 28°22' W 115°44'716.2
2018-Sep-18 00:29N 28°15' W 115°41'716.5
2018-Sep-18 00:03N 28°10' W 115°36'116.4
2018-Sep-18 00:00N 28°09' W 115°36'816.5
2018-Sep-17 23:30N 28°02' W 115°30'716.5
2018-Sep-17 23:03N 27°56' W 115°26'116.5
2018-Sep-17 23:00N 27°55' W 115°25'816.6
2018-Sep-17 22:30N 27°48' W 115°20'716.6
2018-Sep-17 22:03N 27°42' W 115°15'216.7
2018-Sep-17 21:57N 27°41' W 115°14'816.8
2018-Sep-17 21:30N 27°35' W 115°09'816.9
2018-Sep-17 21:02N 27°28' W 115°04'117.0
2018-Sep-17 21:00N 27°28' W 115°04'1116.9
2018-Sep-17 20:22N 27°19' W 114°57'917.2
2018-Sep-17 19:51N 27°12' W 114°51'617.3
2018-Sep-17 19:29N 27°07' W 114°47'716.9
2018-Sep-17 19:03N 27°01' W 114°42'117.2
2018-Sep-17 19:00N 26°60' W 114°41'816.9
2018-Sep-17 18:29N 26°53' W 114°35'34218.5
2018-Sep-17 00:00N 22°54' W 110°06'30 2.3 160 / 61009.010.8 28.023.725.0
2018-Sep-16 11:00N 23°06' W 110°36'31519.2 050 / 61009.010.8 27.024.125.0
2018-Sep-15 18:36N 26°54' W 114°36'219.8
2018-Sep-15 18:29N 26°56' W 114°38'1420.0
2018-Sep-15 17:47N 27°07' W 114°47'719.7
2018-Sep-15 17:26N 27°13' W 114°52'2820.2
2018-Sep-15 16:03N 27°35' W 115°10'520.5
2018-Sep-15 15:49N 27°39' W 115°13'5420.3
2018-Sep-15 13:11N 28°25' W 115°45'1121.3
2018-Sep-15 12:39N 28°36' W 115°50'421.5
2018-Sep-15 12:28N 28°39' W 115°51'921.7
2018-Sep-15 12:03N 28°47' W 115°55'121.3
2018-Sep-15 12:00N 28°48' W 115°56'14975.1
2018-Sep-15 12:00N 28°36' W 115°48'2551.2 310 / 181008.010.8 20.018.420.0
2018-Sep-15 11:30N 28°58' W 116°01'3721.3
2018-Sep-15 09:47N 29°32' W 116°17'620.6
2018-Sep-15 09:30N 29°38' W 116°20'2020.8
2018-Sep-15 08:32N 29°56' W 116°29'220.8
2018-Sep-15 08:27N 29°58' W 116°29'2320.8
2018-Sep-15 07:21N 30°19' W 116°40'1220.8
2018-Sep-15 06:48N 30°30' W 116°45'621.0
2018-Sep-15 06:30N 30°35' W 116°46'1021.1
2018-Sep-15 06:03N 30°45' W 116°49'121.0
2018-Sep-15 06:00N 30°46' W 116°50'1121.1
2018-Sep-15 05:29N 30°56' W 116°53'2 4.8
2018-Sep-15 05:00N 30°54' W 116°54'1789.7 320 / 211010.0 18.014.618.8
2018-Sep-15 04:48N 31°10' W 116°57'721.6
2018-Sep-15 04:29N 31°17' W 116°59'921.5
2018-Sep-15 04:03N 31°26' W 117°02'121.5
2018-Sep-15 04:00N 31°27' W 117°02'1121.5
2018-Sep-15 03:30N 31°37' W 117°06'1021.5
2018-Sep-15 03:03N 31°47' W 117°09'121.8
2018-Sep-15 03:00N 31°48' W 117°09'1121.8
2018-Sep-15 02:30N 31°58' W 117°12'1021.6
2018-Sep-15 02:03N 32°07' W 117°16'121.7
2018-Sep-15 02:00N 32°09' W 117°17'1121.8
2018-Sep-15 01:30N 32°19' W 117°21'1021.5
2018-Sep-15 01:03N 32°28' W 117°21'122.1
2018-Sep-15 01:00N 32°30' W 117°20'1021.0
2018-Sep-15 00:30N 32°38' W 117°14'510.7
2018-Sep-15 00:03N 32°43' W 117°12'110.8
2018-Sep-15 00:00N 32°43' W 117°12'1 2.1
2018-Sep-14 23:28N 32°43' W 117°10'0 0.0
2018-Sep-14 22:58N 32°43' W 117°10'0 0.0
2018-Sep-14 22:28N 32°43' W 117°10'0 0.0
2018-Sep-14 21:54N 32°43' W 117°10'0 0.0
2018-Sep-14 21:22N 32°43' W 117°10'0 0.0
2018-Sep-14 20:57N 32°43' W 117°10'0 0.0
2018-Sep-14 20:21N 32°43' W 117°10'0 0.0
2018-Sep-14 20:03N 32°43' W 117°10'0 0.0
2018-Sep-14 19:57N 32°43' W 117°10'0 0.0
2018-Sep-14 19:27N 32°43' W 117°10'0 0.0
2018-Sep-14 19:00N 32°43' W 117°10'0 0.0
2018-Sep-14 18:28N 32°43' W 117°10'0 0.0
2018-Sep-14 18:04N 32°43' W 117°10'0 0.0
2018-Sep-14 17:57N 32°43' W 117°10'  
Track history (hours):
 
Tides and Currents Weather Stations Pressure Air Temp Water Temp Dewpoint Dewpoint Depression Visibility Wind Speed Wind Dir Waves Ship Positions

Disney Wonder

Last reported at 2018-Sep-24 17:50 UTC. Time now 2018-Sep-24 21:47 UTC.
Position N 26°56' W 114°38'.

Length 301 m; draft 8.2 m.

Type: Passenger vessel. MMSI: 308457000.

Date/timePositionNaut miles runAvg speedWind from/ knotsBaromVisibWave heightAir tempDewpointWater temp
2018-Sep-24 17:50N 26°56' W 114°38'721.0
2018-Sep-24 17:30N 27°02' W 114°42'26221.4
2018-Sep-24 05:17N 30°57' W 116°54'521.4
2018-Sep-24 05:03N 31°02' W 116°55'722.0
2018-Sep-24 04:43N 31°09' W 116°57'1122.0
2018-Sep-24 04:14N 31°19' W 117°00'421.9
2018-Sep-24 04:03N 31°23' W 117°01'121.6
2018-Sep-24 04:00N 31°24' W 117°02'1021.6
2018-Sep-24 03:30N 31°34' W 117°05'1021.3
2018-Sep-24 03:03N 31°44' W 117°08'121.4
2018-Sep-24 03:00N 31°45' W 117°08'1121.2
2018-Sep-24 02:30N 31°54' W 117°13'1021.8
2018-Sep-24 02:03N 32°04' W 117°16'121.9
2018-Sep-24 02:00N 32°05' W 117°17'1221.7
2018-Sep-24 01:26N 32°17' W 117°21'820.9
2018-Sep-24 01:03N 32°25' W 117°21'122.0
2018-Sep-24 01:00N 32°26' W 117°21'1121.8
2018-Sep-24 00:30N 32°35' W 117°15'714.5
2018-Sep-24 00:03N 32°42' W 117°14'010.8
2018-Sep-24 00:00N 32°42' W 117°14'3 5.4
2018-Sep-23 23:29N 32°43' W 117°10'0 0.0
2018-Sep-23 22:53N 32°43' W 117°10'0 0.0
2018-Sep-23 22:17N 32°43' W 117°10'0 0.0
2018-Sep-23 21:53N 32°43' W 117°10'0 0.0
2018-Sep-23 21:05N 32°43' W 117°10'0 0.0
2018-Sep-23 20:59N 32°43' W 117°10'0 0.0
2018-Sep-23 20:29N 32°43' W 117°10'0 0.0
2018-Sep-23 19:59N 32°43' W 117°10'0 0.0
2018-Sep-23 18:59N 32°43' W 117°10'0 0.0
2018-Sep-23 18:29N 32°43' W 117°10'0 0.0
2018-Sep-23 17:59N 32°43' W 117°10'0 0.0
2018-Sep-23 17:11N 32°43' W 117°10'0 0.0
2018-Sep-23 16:47N 32°43' W 117°10'0 0.2
2018-Sep-23 16:29N 32°43' W 117°10'0 0.1
2018-Sep-23 15:59N 32°43' W 117°10'0 0.0
2018-Sep-23 15:05N 32°43' W 117°10'0 0.0
2018-Sep-23 14:53N 32°43' W 117°10'0 0.0
2018-Sep-23 14:29N 32°43' W 117°10'1 0.9
2018-Sep-23 13:30N 32°43' W 117°11'4 8.7
2018-Sep-23 13:03N 32°40' W 117°14'111.9
2018-Sep-23 13:00N 32°39' W 117°14'510.6
2018-Sep-23 12:30N 32°34' W 117°16'714.5
2018-Sep-23 12:04N 32°29' W 117°20'115.2
2018-Sep-23 12:00N 32°28' W 117°21'816.8
2018-Sep-23 11:30N 32°20' W 117°20'817.3
2018-Sep-23 11:03N 32°12' W 117°19'116.9
2018-Sep-23 11:01N 32°11' W 117°19'917.1
2018-Sep-23 10:30N 32°02' W 117°18'715.9
2018-Sep-23 10:03N 31°56' W 117°16'116.6
2018-Sep-23 10:01N 31°55' W 117°15'917.5
2018-Sep-23 09:30N 31°49' W 117°08'817.5
2018-Sep-23 09:03N 31°41' W 117°07'117.6
2018-Sep-23 09:00N 31°40' W 117°06'917.6
2018-Sep-23 08:30N 31°32' W 117°04'817.2
2018-Sep-23 08:03N 31°24' W 117°02'116.8
2018-Sep-23 08:00N 31°23' W 117°01'816.7
2018-Sep-23 07:30N 31°15' W 116°59'716.7
2018-Sep-23 07:03N 31°08' W 116°56'116.5
2018-Sep-23 07:00N 31°07' W 116°56'917.0
2018-Sep-23 06:30N 30°59' W 116°54'817.1
2018-Sep-23 06:02N 30°51' W 116°51'117.2
2018-Sep-23 06:00N 30°50' W 116°51'917.1
2018-Sep-23 05:27N 30°41' W 116°48'819.2
2018-Sep-23 05:02N 30°34' W 116°46'120.7
2018-Sep-23 05:00N 30°33' W 116°46'1020.3
2018-Sep-23 04:30N 30°23' W 116°42'920.3
2018-Sep-23 04:03N 30°15' W 116°38'120.2
2018-Sep-23 04:00N 30°14' W 116°37'1020.2
2018-Sep-23 03:30N 30°05' W 116°33'919.9
2018-Sep-23 03:02N 29°56' W 116°29'2920.1
2018-Sep-23 01:37N 29°30' W 116°16'719.8
2018-Sep-23 01:15N 29°23' W 116°13'419.4
2018-Sep-23 01:03N 29°20' W 116°11'219.5
2018-Sep-23 00:57N 29°18' W 116°10'919.8
2018-Sep-23 00:30N 29°10' W 116°06'1020.1
2018-Sep-23 00:02N 29°01' W 116°02'019.7
2018-Sep-23 00:00N 29°00' W 116°02'1320.1
2018-Sep-22 23:21N 28°48' W 115°56'619.9
2018-Sep-22 23:03N 28°43' W 115°53'119.7
2018-Sep-22 23:00N 28°42' W 115°53'1020.1
2018-Sep-22 22:30N 28°33' W 115°48'1820.2
2018-Sep-22 21:35N 28°15' W 115°41'221.0
2018-Sep-22 21:28N 28°13' W 115°39'2020.4
2018-Sep-22 20:29N 27°57' W 115°26'1020.4
2018-Sep-22 20:00N 27°49' W 115°20'1020.5
2018-Sep-22 19:29N 27°40' W 115°13'1020.9
2018-Sep-22 19:01N 27°32' W 115°07'120.5
2018-Sep-22 18:58N 27°31' W 115°07'176 4.1
2018-Sep-21 00:00N 25°12' W 113°06'39721.6 270 / 101011.010.8 22.018.922.0
2018-Sep-20 05:36N 30°55' W 116°52'221.7
2018-Sep-20 05:30N 30°57' W 116°53'2021.4
2018-Sep-20 04:35N 31°16' W 116°58'221.8
2018-Sep-20 04:30N 31°17' W 116°59'1021.5
2018-Sep-20 04:03N 31°27' W 117°02'121.4
2018-Sep-20 04:00N 31°28' W 117°02'1121.1
2018-Sep-20 03:29N 31°38' W 117°06'921.3
2018-Sep-20 03:03N 31°46' W 117°11'121.8
2018-Sep-20 03:00N 31°47' W 117°11'1121.7
2018-Sep-20 02:30N 31°57' W 117°17'1021.2
2018-Sep-20 02:03N 32°06' W 117°21'122.1
2018-Sep-20 02:00N 32°07' W 117°21'13809.0
2018-Sep-20 02:00N 31°54' W 117°18'2449.7 310 / 111007.010.8 18.014.620.0
2018-Sep-20 01:30N 32°18' W 117°21'920.6
2018-Sep-20 01:03N 32°27' W 117°23'119.8
2018-Sep-20 01:00N 32°28' W 117°22'1020.0
2018-Sep-20 00:30N 32°36' W 117°15'612.8
2018-Sep-20 00:03N 32°42' W 117°14'1 9.9
2018-Sep-20 00:00N 32°42' W 117°14'3 4.6
2018-Sep-19 23:22N 32°43' W 117°10'0 0.0
2018-Sep-19 22:52N 32°43' W 117°10'0 0.0
2018-Sep-19 22:28N 32°43' W 117°10'0 0.0
2018-Sep-19 21:58N 32°43' W 117°10'0 0.0
2018-Sep-19 21:22N 32°43' W 117°10'0 0.0
2018-Sep-19 20:58N 32°43' W 117°10'0 0.0
2018-Sep-19 20:28N 32°43' W 117°10'0 0.0
2018-Sep-19 19:52N 32°43' W 117°10'0 0.0
2018-Sep-19 19:28N 32°43' W 117°10'0 0.0
2018-Sep-19 18:52N 32°43' W 117°10'0 0.0
2018-Sep-19 18:22N 32°43' W 117°10'0 0.0
2018-Sep-19 17:58N 32°43' W 117°10'0 0.0
2018-Sep-19 17:28N 32°43' W 117°10'0 0.0
2018-Sep-19 16:58N 32°43' W 117°10'0 0.0
2018-Sep-19 16:28N 32°43' W 117°10'0 0.0
2018-Sep-19 15:58N 32°43' W 117°10'0 0.0
2018-Sep-19 15:04N 32°43' W 117°10'0 0.0
2018-Sep-19 14:58N 32°43' W 117°10'0 0.0
2018-Sep-19 14:25N 32°43' W 117°10'1 0.6
2018-Sep-19 13:30N 32°43' W 117°11'4 7.7
2018-Sep-19 13:03N 32°40' W 117°14'114.1
2018-Sep-19 13:00N 32°40' W 117°14'5 9.3
2018-Sep-19 12:30N 32°36' W 117°17'510.8
2018-Sep-19 12:03N 32°34' W 117°22'011.1
2018-Sep-19 12:01N 32°34' W 117°23'611.9
2018-Sep-19 11:30N 32°33' W 117°30'613.6
2018-Sep-19 11:04N 32°33' W 117°37'113.4
2018-Sep-19 11:00N 32°33' W 117°38'713.3
2018-Sep-19 10:28N 32°27' W 117°43'512.8
2018-Sep-19 10:03N 32°23' W 117°39'113.3
2018-Sep-19 10:01N 32°23' W 117°39'4 7.8
2018-Sep-19 09:30N 32°20' W 117°35'3 6.8
2018-Sep-19 09:03N 32°19' W 117°32'0 7.3
2018-Sep-19 09:00N 32°18' W 117°32'3 6.7
2018-Sep-19 08:29N 32°16' W 117°29'3 6.8
2018-Sep-19 08:04N 32°13' W 117°27'0 6.9
2018-Sep-19 08:00N 32°13' W 117°27'3 6.6
2018-Sep-19 07:30N 32°10' W 117°25'3 6.4
2018-Sep-19 07:03N 32°07' W 117°24'0 6.1
2018-Sep-19 07:01N 32°07' W 117°24'3 6.3
2018-Sep-19 06:31N 32°04' W 117°22'3 6.2
2018-Sep-19 06:04N 32°02' W 117°19'0 6.2
2018-Sep-19 06:01N 32°02' W 117°19'3 6.3
2018-Sep-19 05:30N 32°02' W 117°15'3 6.7
2018-Sep-19 05:03N 32°01' W 117°12'0 6.8
2018-Sep-19 05:00N 32°01' W 117°11'3 6.6
2018-Sep-19 04:29N 31°60' W 117°08'9 6.8
2018-Sep-19 03:12N 31°56' W 116°58'1 6.9
2018-Sep-19 03:01N 31°56' W 116°57'0 6.6
2018-Sep-19 03:00N 31°56' W 116°57'3 6.9
2018-Sep-19 02:30N 31°55' W 116°53'3 7.0
2018-Sep-19 02:03N 31°53' W 116°49'0 7.7
2018-Sep-19 02:00N 31°53' W 116°49'5382.2
2018-Sep-19 02:00N 31°48' W 116°48'4 7.9 320 / 111009.010.8 19.017.420.0
2018-Sep-19 01:30N 31°51' W 116°45'3 6.9
2018-Sep-19 01:03N 31°50' W 116°42'0 7.4
2018-Sep-19 00:59N 31°50' W 116°42'5 0.4
2018-Sep-18 13:40N 31°47' W 116°46'213.7
2018-Sep-18 13:31N 31°45' W 116°48'714.6
2018-Sep-18 13:03N 31°38' W 116°48'114.8
2018-Sep-18 13:00N 31°38' W 116°49'815.2
2018-Sep-18 12:30N 31°30' W 116°49'715.0
2018-Sep-18 12:03N 31°23' W 116°48'115.8
2018-Sep-18 12:00N 31°22' W 116°47'816.3
2018-Sep-18 11:30N 31°15' W 116°43'816.7
2018-Sep-18 11:03N 31°08' W 116°40'117.4
2018-Sep-18 11:00N 31°07' W 116°40'917.1
2018-Sep-18 10:30N 30°59' W 116°37'4717.2
2018-Sep-18 07:45N 30°14' W 116°22'4217.5
2018-Sep-18 05:20N 29°33' W 116°08'518.6
2018-Sep-18 05:03N 29°28' W 116°06'3417.4
2018-Sep-18 03:06N 28°56' W 115°55'215.8
2018-Sep-18 02:59N 28°54' W 115°54'815.8
2018-Sep-18 02:30N 28°46' W 115°52'715.9
2018-Sep-18 02:03N 28°40' W 115°50'116.4
2018-Sep-18 01:59N 28°39' W 115°49'816.1
2018-Sep-18 01:29N 28°31' W 115°47'716.3
2018-Sep-18 01:02N 28°24' W 115°44'253.4
2018-Sep-18 01:00N 28°24' W 115°42'237.5 320 / 181008.010.8 21.017.823.0
2018-Sep-18 00:56N 28°22' W 115°44'716.2
2018-Sep-18 00:29N 28°15' W 115°41'716.5
2018-Sep-18 00:03N 28°10' W 115°36'116.4
2018-Sep-18 00:00N 28°09' W 115°36'816.5
2018-Sep-17 23:30N 28°02' W 115°30'716.5
2018-Sep-17 23:03N 27°56' W 115°26'116.5
2018-Sep-17 23:00N 27°55' W 115°25'816.6
2018-Sep-17 22:30N 27°48' W 115°20'716.6
2018-Sep-17 22:03N 27°42' W 115°15'216.7
2018-Sep-17 21:57N 27°41' W 115°14'816.8
2018-Sep-17 21:30N 27°35' W 115°09'816.9
2018-Sep-17 21:02N 27°28' W 115°04'117.0
2018-Sep-17 21:00N 27°28' W 115°04'1116.9
2018-Sep-17 20:22N 27°19' W 114°57'917.2
2018-Sep-17 19:51N 27°12' W 114°51'617.3
2018-Sep-17 19:29N 27°07' W 114°47'716.9
2018-Sep-17 19:03N 27°01' W 114°42'117.2
2018-Sep-17 19:00N 26°60' W 114°41'816.9
2018-Sep-17 18:29N 26°53' W 114°35'34218.5
2018-Sep-17 00:00N 22°54' W 110°06'30 2.3 160 / 61009.010.8 28.023.725.0
2018-Sep-16 11:00N 23°06' W 110°36'31519.2 050 / 61009.010.8 27.024.125.0
2018-Sep-15 18:36N 26°54' W 114°36'219.8
2018-Sep-15 18:29N 26°56' W 114°38'1420.0
2018-Sep-15 17:47N 27°07' W 114°47'719.7
2018-Sep-15 17:26N 27°13' W 114°52'2820.2
2018-Sep-15 16:03N 27°35' W 115°10'520.5
2018-Sep-15 15:49N 27°39' W 115°13'5420.3
2018-Sep-15 13:11N 28°25' W 115°45'1121.3
2018-Sep-15 12:39N 28°36' W 115°50'421.5
2018-Sep-15 12:28N 28°39' W 115°51'921.7
2018-Sep-15 12:03N 28°47' W 115°55'121.3
2018-Sep-15 12:00N 28°48' W 115°56'14975.1
2018-Sep-15 12:00N 28°36' W 115°48'2551.2 310 / 181008.010.8 20.018.420.0
2018-Sep-15 11:30N 28°58' W 116°01'3721.3
2018-Sep-15 09:47N 29°32' W 116°17'620.6
2018-Sep-15 09:30N 29°38' W 116°20'2020.8
2018-Sep-15 08:32N 29°56' W 116°29'220.8
2018-Sep-15 08:27N 29°58' W 116°29'2320.8
2018-Sep-15 07:21N 30°19' W 116°40'1220.8
2018-Sep-15 06:48N 30°30' W 116°45'621.0
2018-Sep-15 06:30N 30°35' W 116°46'1021.1
2018-Sep-15 06:03N 30°45' W 116°49'121.0
2018-Sep-15 06:00N 30°46' W 116°50'1121.1
2018-Sep-15 05:29N 30°56' W 116°53'2 4.8
2018-Sep-15 05:00N 30°54' W 116°54'1789.7 320 / 211010.0 18.014.618.8
2018-Sep-15 04:48N 31°10' W 116°57'721.6
2018-Sep-15 04:29N 31°17' W 116°59'921.5
2018-Sep-15 04:03N 31°26' W 117°02'121.5
2018-Sep-15 04:00N 31°27' W 117°02'1121.5
2018-Sep-15 03:30N 31°37' W 117°06'1021.5
2018-Sep-15 03:03N 31°47' W 117°09'121.8
2018-Sep-15 03:00N 31°48' W 117°09'1121.8
2018-Sep-15 02:30N 31°58' W 117°12'1021.6
2018-Sep-15 02:03N 32°07' W 117°16'121.7
2018-Sep-15 02:00N 32°09' W 117°17'1121.8
2018-Sep-15 01:30N 32°19' W 117°21'1021.5
2018-Sep-15 01:03N 32°28' W 117°21'122.1
2018-Sep-15 01:00N 32°30' W 117°20'1021.0
2018-Sep-15 00:30N 32°38' W 117°14'510.7
2018-Sep-15 00:03N 32°43' W 117°12'110.8
2018-Sep-15 00:00N 32°43' W 117°12'1 2.1
2018-Sep-14 23:28N 32°43' W 117°10'0 0.0
2018-Sep-14 22:58N 32°43' W 117°10'0 0.0
2018-Sep-14 22:28N 32°43' W 117°10'0 0.0
2018-Sep-14 21:54N 32°43' W 117°10'0 0.0
2018-Sep-14 21:22N 32°43' W 117°10'0 0.0
2018-Sep-14 20:57N 32°43' W 117°10'0 0.0
2018-Sep-14 20:21N 32°43' W 117°10'0 0.0
2018-Sep-14 20:03N 32°43' W 117°10'0 0.0
2018-Sep-14 19:57N 32°43' W 117°10'0 0.0
2018-Sep-14 19:27N 32°43' W 117°10'0 0.0
2018-Sep-14 19:00N 32°43' W 117°10'0 0.0
2018-Sep-14 18:28N 32°43' W 117°10'0 0.0
2018-Sep-14 18:04N 32°43' W 117°10'0 0.0
2018-Sep-14 17:57N 32°43' W 117°10'  

Dump ship's entire track history